createdAt,value
2023-04-22T00:01:59.593Z,3.80
2023-04-22T00:04:29.155Z,3.80
2023-04-22T00:06:57.614Z,3.70
2023-04-22T00:09:25.667Z,3.70
2023-04-22T00:11:53.800Z,3.70
2023-04-22T00:14:21.723Z,3.50
2023-04-22T00:16:49.731Z,3.40
2023-04-22T00:19:17.744Z,3.30
2023-04-22T00:21:47.052Z,3.20
2023-04-22T00:24:15.418Z,3.30
2023-04-22T00:26:43.427Z,3.30
2023-04-22T00:29:11.404Z,3.30
2023-04-22T00:31:39.466Z,3.30
2023-04-22T00:34:07.428Z,3.20
2023-04-22T00:36:35.432Z,3.20
2023-04-22T00:39:06.300Z,3.20
2023-04-22T00:41:34.522Z,3.20
2023-04-22T00:44:02.788Z,3.30
2023-04-22T00:46:31.760Z,3.20
2023-04-22T00:49:00.184Z,3.10
2023-04-22T00:51:28.188Z,3.20
2023-04-22T00:53:56.411Z,3.30
2023-04-22T00:56:27.587Z,3.30
2023-04-22T00:58:56.345Z,3.30
2023-04-22T01:01:24.802Z,3.20
2023-04-22T01:03:53.624Z,3.20
2023-04-22T01:06:23.219Z,3.30
2023-04-22T01:08:51.296Z,3.20
2023-04-22T01:11:19.740Z,3.20
2023-04-22T01:13:49.036Z,3.20
2023-04-22T01:16:17.207Z,3.20
2023-04-22T01:18:45.392Z,3.20
2023-04-22T01:21:13.483Z,3.00
2023-04-22T01:23:43.550Z,3.00
2023-04-22T01:26:11.620Z,3.00
2023-04-22T01:28:40.322Z,2.90
2023-04-22T01:31:08.515Z,2.90
2023-04-22T01:33:36.583Z,2.90
2023-04-22T01:36:04.753Z,3.00
2023-04-22T01:38:33.650Z,3.00
2023-04-22T01:41:03.391Z,3.00
2023-04-22T01:43:32.248Z,2.90
2023-04-22T01:46:02.381Z,2.90
2023-04-22T01:48:30.413Z,2.90
2023-04-22T01:50:58.425Z,2.80
2023-04-22T01:53:26.495Z,2.70
2023-04-22T01:55:54.490Z,2.80
2023-04-22T01:58:23.816Z,2.70
2023-04-22T02:00:51.797Z,2.60
2023-04-22T02:03:19.887Z,2.70
2023-04-22T02:05:47.980Z,2.80
2023-04-22T02:08:15.962Z,2.80
2023-04-22T02:10:44.009Z,2.70
2023-04-22T02:13:12.027Z,2.70
2023-04-22T02:15:41.417Z,2.60
2023-04-22T02:18:10.142Z,2.60
2023-04-22T02:20:38.280Z,2.50
2023-04-22T02:23:06.494Z,2.60
2023-04-22T02:25:34.493Z,2.70
2023-04-22T02:28:02.470Z,2.70
2023-04-22T02:30:30.694Z,2.70
2023-04-22T02:33:00.070Z,2.80
2023-04-22T02:35:28.105Z,2.70
2023-04-22T02:37:56.118Z,2.50
2023-04-22T02:40:24.323Z,2.50
2023-04-22T02:42:52.639Z,2.50
2023-04-22T02:45:20.839Z,2.50
2023-04-22T02:47:48.843Z,2.50
2023-04-22T02:50:18.363Z,2.60
2023-04-22T02:52:46.333Z,2.70
2023-04-22T02:55:14.476Z,2.60
2023-04-22T02:57:42.481Z,2.60
2023-04-22T03:00:11.380Z,2.50
2023-04-22T03:02:39.608Z,2.30
2023-04-22T03:05:08.114Z,2.30
2023-04-22T03:07:37.596Z,2.20
2023-04-22T03:10:06.486Z,2.20
2023-04-22T03:12:34.443Z,2.10
2023-04-22T03:15:02.422Z,2.00
2023-04-22T03:17:30.446Z,2.00
2023-04-22T03:19:58.421Z,2.00
2023-04-22T03:22:26.596Z,2.00
2023-04-22T03:24:56.011Z,2.10
2023-04-22T03:27:24.025Z,2.20
2023-04-22T03:29:52.015Z,2.30
2023-04-22T03:32:20.099Z,2.30
2023-04-22T03:34:48.052Z,2.30
2023-04-22T03:37:16.013Z,2.20
2023-04-22T03:39:43.983Z,2.20
2023-04-22T03:42:14.700Z,2.10
2023-04-22T03:44:42.676Z,2.10
2023-04-22T03:47:10.758Z,2.00
2023-04-22T03:49:39.488Z,1.90
2023-04-22T03:52:07.829Z,1.90
2023-04-22T03:54:35.863Z,1.80
2023-04-22T03:57:03.845Z,1.60
2023-04-22T03:59:33.130Z,1.50
2023-04-22T04:02:01.252Z,1.30
2023-04-22T04:04:29.633Z,1.40
2023-04-22T04:06:58.037Z,1.50
2023-04-22T04:09:26.030Z,1.50
2023-04-22T04:11:54.022Z,1.60
2023-04-22T04:14:22.770Z,1.70
2023-04-22T04:16:52.346Z,1.60
2023-04-22T04:19:20.322Z,1.60
2023-04-22T04:21:48.604Z,1.50
2023-04-22T04:24:16.567Z,1.40
2023-04-22T04:26:44.533Z,1.40
2023-04-22T04:29:14.054Z,1.40
2023-04-22T04:31:42.877Z,1.40
2023-04-22T04:34:12.628Z,1.50
2023-04-22T04:36:40.819Z,1.40
2023-04-22T04:39:09.630Z,1.50
2023-04-22T04:41:38.668Z,1.60
2023-04-22T04:44:06.877Z,1.70
2023-04-22T04:46:37.516Z,1.70
2023-04-22T04:49:05.856Z,1.80
2023-04-22T04:51:35.196Z,2.00
2023-04-22T04:54:03.205Z,2.00
2023-04-22T04:56:31.647Z,2.10
2023-04-22T04:58:59.608Z,2.00
2023-04-22T05:01:27.643Z,2.00
2023-04-22T05:03:55.781Z,2.00
2023-04-22T05:06:23.975Z,2.00
2023-04-22T05:08:53.315Z,2.20
2023-04-22T05:11:21.428Z,2.40
2023-04-22T05:13:49.430Z,2.50
2023-04-22T05:16:17.486Z,2.70
2023-04-22T05:18:45.483Z,2.90
2023-04-22T05:21:13.442Z,3.00
2023-04-22T05:23:41.493Z,2.80
2023-04-22T05:26:10.812Z,2.90
2023-04-22T05:28:38.839Z,3.20
2023-04-22T05:31:07.403Z,3.40
2023-04-22T05:33:35.340Z,3.80
2023-04-22T05:36:03.326Z,4.20
2023-04-22T05:38:31.384Z,4.40
2023-04-22T05:40:59.670Z,4.50
2023-04-22T05:43:29.389Z,4.70
2023-04-22T05:45:57.830Z,5.00
2023-04-22T05:48:26.674Z,5.30
2023-04-22T05:50:55.969Z,5.60
2023-04-22T05:53:24.607Z,6.00
2023-04-22T05:55:53.623Z,6.20
2023-04-22T05:58:22.335Z,6.30
2023-04-22T06:00:53.463Z,6.30
2023-04-22T06:03:22.270Z,6.60
2023-04-22T06:05:51.208Z,6.90
2023-04-22T06:08:19.768Z,7.10
2023-04-22T06:10:47.798Z,7.60
2023-04-22T06:13:17.700Z,8.10
2023-04-22T06:15:46.588Z,8.70
2023-04-22T06:18:16.984Z,9.20
2023-04-22T06:20:45.891Z,9.70
2023-04-22T06:23:16.117Z,10.20
2023-04-22T06:25:45.544Z,10.50
2023-04-22T06:28:13.990Z,10.90
2023-04-22T06:30:44.054Z,11.60
2023-04-22T06:33:13.606Z,11.90
2023-04-22T06:35:44.805Z,12.20
2023-04-22T06:38:13.568Z,13.00
2023-04-22T06:40:41.935Z,14.00
2023-04-22T06:43:09.923Z,14.00
2023-04-22T06:45:37.959Z,14.50
2023-04-22T06:48:06.037Z,14.70
2023-04-22T06:50:33.988Z,14.90
2023-04-22T06:53:03.331Z,15.20
2023-04-22T06:55:31.386Z,15.50
2023-04-22T06:57:59.351Z,15.60
2023-04-22T07:00:28.101Z,15.50
2023-04-22T07:02:56.220Z,15.00
2023-04-22T07:05:24.272Z,15.00
2023-04-22T07:07:52.422Z,15.20
2023-04-22T07:10:22.092Z,15.30
2023-04-22T07:12:50.046Z,15.30
2023-04-22T07:15:18.143Z,15.10
2023-04-22T07:17:46.131Z,15.20
2023-04-22T07:20:14.163Z,15.30
2023-04-22T07:22:42.082Z,15.10
2023-04-22T07:25:11.028Z,15.20
2023-04-22T07:27:40.427Z,14.90
2023-04-22T07:30:10.116Z,15.20
2023-04-22T07:32:38.680Z,15.20
2023-04-22T07:35:07.976Z,15.50
2023-04-22T07:37:36.046Z,15.50
2023-04-22T07:40:04.193Z,15.60
2023-04-22T07:42:32.210Z,15.40
2023-04-22T07:45:01.589Z,15.40
2023-04-22T07:47:29.619Z,15.20
2023-04-22T07:49:58.031Z,15.00
2023-04-22T07:52:26.686Z,14.90
2023-04-22T07:54:54.803Z,14.60
2023-04-22T07:57:22.783Z,14.90
2023-04-22T07:59:51.008Z,15.10
2023-04-22T08:02:20.599Z,14.80
2023-04-22T08:04:48.680Z,14.70
2023-04-22T08:07:31.821Z,15.20
2023-04-22T08:10:01.509Z,15.30
2023-04-22T08:12:29.537Z,15.10
2023-04-22T08:14:58.046Z,15.10
2023-04-22T08:17:27.960Z,15.20
2023-04-22T08:19:55.957Z,15.20
2023-04-22T08:22:24.005Z,15.20
2023-04-22T08:24:51.970Z,14.90
2023-04-22T08:27:21.956Z,15.20
2023-04-22T08:29:49.893Z,15.50
2023-04-22T08:32:19.778Z,15.60
2023-04-22T08:34:51.929Z,15.50
2023-04-22T08:37:22.073Z,15.80
2023-04-22T08:39:50.081Z,16.30
2023-04-22T08:42:18.290Z,16.40
2023-04-22T08:44:47.662Z,16.10
2023-04-22T08:47:16.746Z,16.20
2023-04-22T08:49:47.716Z,16.20
2023-04-22T08:52:17.210Z,16.60
2023-04-22T08:54:45.399Z,16.90
2023-04-22T08:57:14.918Z,17.10
2023-04-22T08:59:43.681Z,17.10
2023-04-22T09:02:19.052Z,16.20
2023-04-22T09:04:48.933Z,15.50
2023-04-22T09:07:22.261Z,15.70
2023-04-22T09:09:50.595Z,16.70
2023-04-22T09:12:19.269Z,17.20
2023-04-22T09:14:47.506Z,16.50
2023-04-22T09:17:18.585Z,16.70
2023-04-22T09:19:47.146Z,16.60
2023-04-22T09:22:16.178Z,16.20
2023-04-22T09:24:51.100Z,15.70
2023-04-22T09:27:19.276Z,15.90
2023-04-22T09:29:50.805Z,15.60
2023-04-22T09:32:19.350Z,15.30
2023-04-22T09:34:52.223Z,15.50
2023-04-22T09:37:23.882Z,15.10
2023-04-22T09:39:53.967Z,15.30
2023-04-22T09:42:22.869Z,15.40
2023-04-22T09:44:52.984Z,15.30
2023-04-22T09:47:21.377Z,15.80
2023-04-22T09:49:49.657Z,15.80
2023-04-22T09:52:26.790Z,15.70
2023-04-22T09:54:56.184Z,15.90
2023-04-22T09:57:24.446Z,16.10
2023-04-22T09:59:52.995Z,16.40
2023-04-22T10:02:30.299Z,16.70
2023-04-22T10:04:58.897Z,16.20
2023-04-22T10:07:31.840Z,16.30
2023-04-22T10:10:01.417Z,16.00
2023-04-22T10:12:35.502Z,16.10
2023-04-22T10:15:04.323Z,16.50
2023-04-22T10:17:34.859Z,17.10
2023-04-22T10:20:05.355Z,16.50
2023-04-22T10:22:35.436Z,16.50
2023-04-22T10:25:05.443Z,16.20
2023-04-22T10:27:33.451Z,16.00
2023-04-22T10:30:02.314Z,15.50
2023-04-22T10:32:30.835Z,15.50
2023-04-22T10:35:10.744Z,15.70
2023-04-22T10:37:41.943Z,16.00
2023-04-22T10:40:16.067Z,16.20
2023-04-22T10:42:48.951Z,16.40
2023-04-22T10:45:17.134Z,16.20
2023-04-22T10:47:46.102Z,16.50
2023-04-22T10:50:26.431Z,16.50
2023-04-22T10:52:58.327Z,16.10
2023-04-22T10:55:47.943Z,16.20
2023-04-22T10:58:21.124Z,16.50
2023-04-22T11:00:54.511Z,16.40
2023-04-22T11:03:28.908Z,16.20
2023-04-22T11:06:17.274Z,16.00
2023-04-22T11:08:47.071Z,15.60
2023-04-22T11:11:19.027Z,15.80
2023-04-22T11:13:50.596Z,15.70
2023-04-22T11:16:22.475Z,16.00
2023-04-22T11:18:51.174Z,15.80
2023-04-22T11:21:19.578Z,15.80
2023-04-22T11:23:51.727Z,16.60
2023-04-22T11:26:34.732Z,16.50
2023-04-22T11:29:02.911Z,16.60
2023-04-22T11:31:31.003Z,17.00
2023-04-22T11:34:00.462Z,17.30
2023-04-22T11:36:28.739Z,17.10
2023-04-22T11:38:57.053Z,17.30
2023-04-22T11:41:26.496Z,17.40
2023-04-22T11:43:55.592Z,17.40
2023-04-22T11:46:30.483Z,17.70
2023-04-22T11:49:13.353Z,18.20
2023-04-22T11:51:53.953Z,17.90
2023-04-22T11:54:34.183Z,18.10
2023-04-22T11:57:06.754Z,17.90
2023-04-22T11:59:34.784Z,17.80
2023-04-22T12:02:07.216Z,18.00
2023-04-22T12:04:40.177Z,18.00
2023-04-22T12:07:08.656Z,17.90
2023-04-22T12:09:36.837Z,17.50
2023-04-22T12:12:06.816Z,18.10
2023-04-22T12:14:35.169Z,18.20
2023-04-22T12:17:05.423Z,18.50
2023-04-22T12:19:33.496Z,19.50
2023-04-22T12:22:02.095Z,19.10
2023-04-22T12:24:31.173Z,18.40
2023-04-22T12:26:59.624Z,17.70
2023-04-22T12:29:33.673Z,18.10
2023-04-22T12:32:02.024Z,18.20
2023-04-22T12:34:30.058Z,18.00
2023-04-22T12:36:58.084Z,17.90
2023-04-22T12:39:26.251Z,17.90
2023-04-22T12:41:54.222Z,17.90
2023-04-22T12:44:24.947Z,17.90
2023-04-22T12:46:54.740Z,17.60
2023-04-22T12:49:22.810Z,17.20
2023-04-22T12:51:51.316Z,17.30
2023-04-22T12:54:20.600Z,17.50
2023-04-22T12:56:49.738Z,17.30
2023-04-22T12:59:17.768Z,17.90
2023-04-22T13:01:45.924Z,17.90
2023-04-22T13:04:15.618Z,17.10
2023-04-22T13:06:44.379Z,17.10
2023-04-22T13:09:13.019Z,17.60
2023-04-22T13:11:41.364Z,17.40
2023-04-22T13:14:09.659Z,18.10
2023-04-22T13:16:37.938Z,18.40
2023-04-22T13:19:05.996Z,18.20
2023-04-22T13:21:35.808Z,17.70
2023-04-22T13:24:03.856Z,17.20
2023-04-22T13:26:32.460Z,17.50
2023-04-22T13:29:02.620Z,17.40
2023-04-22T13:31:31.152Z,17.20
2023-04-22T13:33:59.712Z,18.10
2023-04-22T13:36:27.809Z,18.20
2023-04-22T13:38:59.182Z,18.50
2023-04-22T13:41:27.279Z,18.40
2023-04-22T13:43:56.045Z,18.20
2023-04-22T13:46:25.031Z,18.40
2023-04-22T13:48:53.201Z,18.70
2023-04-22T13:51:22.180Z,18.90
2023-04-22T13:53:50.537Z,19.00
2023-04-22T13:56:20.669Z,19.20
2023-04-22T13:58:49.107Z,18.80
2023-04-22T14:01:17.802Z,19.20
2023-04-22T14:03:47.591Z,19.20
2023-04-22T14:06:16.654Z,18.40
2023-04-22T14:08:47.374Z,18.60
2023-04-22T14:11:26.554Z,18.40
2023-04-22T14:13:56.289Z,18.70
2023-04-22T14:16:25.971Z,18.00
2023-04-22T14:18:55.837Z,17.50
2023-04-22T14:21:25.617Z,17.70
2023-04-22T14:23:55.082Z,17.60
2023-04-22T14:26:23.047Z,17.20
2023-04-22T14:28:51.032Z,17.00
2023-04-22T14:31:20.601Z,17.30
2023-04-22T14:33:48.721Z,17.50
2023-04-22T14:36:16.998Z,17.80
2023-04-22T14:38:44.999Z,18.10
2023-04-22T14:41:13.268Z,18.10
2023-04-22T14:43:41.204Z,18.00
2023-04-22T14:46:09.242Z,18.00
2023-04-22T14:48:39.332Z,17.60
2023-04-22T14:51:07.360Z,17.40
2023-04-22T14:53:35.581Z,17.40
2023-04-22T14:56:03.546Z,17.40
2023-04-22T14:58:31.839Z,17.40
2023-04-22T15:01:00.232Z,17.20
2023-04-22T15:03:28.791Z,17.50
2023-04-22T15:05:59.057Z,17.80
2023-04-22T15:08:27.915Z,17.50
2023-04-22T15:10:56.039Z,17.60
2023-04-22T15:13:24.474Z,17.80
2023-04-22T15:15:52.843Z,17.70
2023-04-22T15:18:21.813Z,17.90
2023-04-22T15:20:49.870Z,18.10
2023-04-22T15:23:19.276Z,18.00
2023-04-22T15:25:47.578Z,17.90
2023-04-22T15:28:15.829Z,17.90
2023-04-22T15:30:43.916Z,17.70
2023-04-22T15:33:12.195Z,17.40
2023-04-22T15:35:42.399Z,17.00
2023-04-22T15:38:11.122Z,17.10
2023-04-22T15:40:40.647Z,16.90
2023-04-22T15:43:09.014Z,17.00
2023-04-22T15:45:37.421Z,17.20
2023-04-22T15:48:05.966Z,17.20
2023-04-22T15:50:34.095Z,17.20
2023-04-22T15:53:02.098Z,17.40
2023-04-22T15:55:30.211Z,17.50
2023-04-22T15:57:59.692Z,17.40
2023-04-22T16:00:28.032Z,17.50
2023-04-22T16:02:56.431Z,17.30
2023-04-22T16:05:25.392Z,17.10
2023-04-22T16:07:53.896Z,17.20
2023-04-22T16:10:22.812Z,17.30
2023-04-22T16:12:50.843Z,17.40
2023-04-22T16:15:22.485Z,17.20
2023-04-22T16:17:50.536Z,17.00
2023-04-22T16:20:18.644Z,17.10
2023-04-22T16:22:47.744Z,16.90
2023-04-22T16:25:15.754Z,16.80
2023-04-22T16:27:43.795Z,16.70
2023-04-22T16:30:14.318Z,16.90
2023-04-22T16:32:45.677Z,17.10
2023-04-22T16:35:13.691Z,16.80
2023-04-22T16:37:41.692Z,16.70
2023-04-22T16:40:10.684Z,16.60
2023-04-22T16:42:38.715Z,16.60
2023-04-22T16:45:07.883Z,16.60
2023-04-22T16:47:36.003Z,16.50
2023-04-22T16:50:06.236Z,16.60
2023-04-22T16:52:34.532Z,16.50
2023-04-22T16:55:02.696Z,16.20
2023-04-22T16:57:30.833Z,16.20
2023-04-22T16:59:59.042Z,16.10
2023-04-22T17:02:27.296Z,15.90
2023-04-22T17:04:55.322Z,16.00
2023-04-22T17:07:24.878Z,16.00
2023-04-22T17:09:52.835Z,15.90
2023-04-22T17:12:21.085Z,15.70
2023-04-22T17:14:49.113Z,15.80
2023-04-22T17:17:17.256Z,15.50
2023-04-22T17:19:45.249Z,15.40
2023-04-22T17:22:13.225Z,15.40
2023-04-22T17:24:42.747Z,15.20
2023-04-22T17:27:10.751Z,15.10
2023-04-22T17:29:38.962Z,15.10
2023-04-22T17:32:07.543Z,15.00
2023-04-22T17:34:35.890Z,14.90
2023-04-22T17:37:04.099Z,14.90
2023-04-22T17:39:32.288Z,14.70
2023-04-22T17:42:02.386Z,14.60
2023-04-22T17:44:31.148Z,14.70
2023-04-22T17:46:59.260Z,14.70
2023-04-22T17:49:27.420Z,14.40
2023-04-22T17:51:55.485Z,14.40
2023-04-22T17:54:24.325Z,14.30
2023-04-22T17:56:52.465Z,14.20
2023-04-22T17:59:21.866Z,14.10
2023-04-22T18:01:49.922Z,14.10
2023-04-22T18:04:18.096Z,14.10
2023-04-22T18:06:46.096Z,14.00
2023-04-22T18:09:14.314Z,13.90
2023-04-22T18:11:42.388Z,13.80
2023-04-22T18:14:11.018Z,13.70
2023-04-22T18:16:40.656Z,13.60
2023-04-22T18:19:08.740Z,13.50
2023-04-22T18:21:39.711Z,13.50
2023-04-22T18:24:09.775Z,13.40
2023-04-22T18:26:37.737Z,13.30
2023-04-22T18:29:08.621Z,13.20
2023-04-22T18:31:36.729Z,13.10
2023-04-22T18:34:08.064Z,13.00
2023-04-22T18:36:36.097Z,13.00
2023-04-22T18:39:05.457Z,12.90
2023-04-22T18:41:33.596Z,12.80
2023-04-22T18:44:01.679Z,12.70
2023-04-22T18:46:29.730Z,12.60
2023-04-22T18:48:57.875Z,12.70
2023-04-22T18:51:27.678Z,12.70
2023-04-22T18:53:55.630Z,12.50
2023-04-22T18:56:23.927Z,12.50
2023-04-22T18:58:52.581Z,12.50
2023-04-22T19:01:20.819Z,12.30
2023-04-22T19:03:49.535Z,12.20
2023-04-22T19:06:17.744Z,12.10
2023-04-22T19:08:48.685Z,12.20
2023-04-22T19:11:17.319Z,12.20
2023-04-22T19:13:46.320Z,12.10
2023-04-22T19:16:14.475Z,12.00
2023-04-22T19:18:43.021Z,12.30
2023-04-22T19:21:11.302Z,12.00
2023-04-22T19:23:40.688Z,12.00
2023-04-22T19:26:10.357Z,11.90
2023-04-22T19:28:38.613Z,11.90
2023-04-22T19:31:07.581Z,12.00
2023-04-22T19:33:36.089Z,11.90
2023-04-22T19:36:04.693Z,11.90
2023-04-22T19:38:32.765Z,11.90
2023-04-22T19:41:01.050Z,11.90
2023-04-22T19:43:30.778Z,12.00
2023-04-22T19:45:59.052Z,12.00
2023-04-22T19:48:27.857Z,11.90
2023-04-22T19:50:56.378Z,11.90
2023-04-22T19:53:24.854Z,11.80
2023-04-22T19:55:53.929Z,12.00
2023-04-22T19:58:23.216Z,12.00
2023-04-22T20:00:53.408Z,12.20
2023-04-22T20:03:22.588Z,12.10
2023-04-22T20:05:51.234Z,11.80
2023-04-22T20:08:20.489Z,11.80
2023-04-22T20:10:50.085Z,11.50
2023-04-22T20:13:19.614Z,11.20
2023-04-22T20:15:48.110Z,11.00
2023-04-22T20:18:19.489Z,10.90
2023-04-22T20:20:49.800Z,10.70
2023-04-22T20:23:23.031Z,10.60
2023-04-22T20:25:52.497Z,10.50
2023-04-22T20:28:20.771Z,10.40
2023-04-22T20:30:49.588Z,10.30
2023-04-22T20:33:20.738Z,10.20
2023-04-22T20:35:51.096Z,10.10
2023-04-22T20:38:20.327Z,10.10
2023-04-22T20:40:48.946Z,10.00
2023-04-22T20:43:17.065Z,10.00
2023-04-22T20:45:45.350Z,9.90
2023-04-22T20:48:13.381Z,9.80
2023-04-22T20:50:43.233Z,9.60
2023-04-22T20:53:11.590Z,9.70
2023-04-22T20:55:39.743Z,9.70
2023-04-22T20:58:07.991Z,9.80
2023-04-22T21:00:36.196Z,9.80
2023-04-22T21:03:08.695Z,9.70
2023-04-22T21:05:41.129Z,9.70
2023-04-22T21:08:22.790Z,9.70
2023-04-22T21:10:52.288Z,9.60
2023-04-22T21:13:20.833Z,9.70
2023-04-22T21:15:56.223Z,9.60
2023-04-22T21:18:25.829Z,9.60
2023-04-22T21:20:56.215Z,9.60
2023-04-22T21:23:26.717Z,9.60
2023-04-22T21:25:56.218Z,9.60
2023-04-22T21:28:24.736Z,9.60
2023-04-22T21:30:53.260Z,9.50
2023-04-22T21:33:21.356Z,9.50
2023-04-22T21:35:49.852Z,9.50
2023-04-22T21:38:19.576Z,9.40
2023-04-22T21:40:49.101Z,9.40
2023-04-22T21:43:17.101Z,9.40
2023-04-22T21:45:45.339Z,9.30
2023-04-22T21:48:13.364Z,9.30
2023-04-22T21:50:41.367Z,9.20
2023-04-22T21:53:09.685Z,8.70
2023-04-22T21:55:37.827Z,8.40
2023-04-22T21:58:07.512Z,8.30
2023-04-22T22:00:37.786Z,8.10
2023-04-22T22:03:06.955Z,8.00
2023-04-22T22:05:35.338Z,7.90
2023-04-22T22:08:04.102Z,7.70
2023-04-22T22:10:32.226Z,7.60
2023-04-22T22:13:00.760Z,7.50
2023-04-22T22:15:30.398Z,7.50
2023-04-22T22:17:58.743Z,7.40
2023-04-22T22:20:27.164Z,7.40
2023-04-22T22:22:55.342Z,7.50
2023-04-22T22:25:23.783Z,7.30
2023-04-22T22:27:51.860Z,7.20
2023-04-22T22:30:21.640Z,7.10
2023-04-22T22:32:51.134Z,7.00
2023-04-22T22:35:19.766Z,7.10
2023-04-22T22:37:47.795Z,7.10
2023-04-22T22:40:16.401Z,7.10
2023-04-22T22:42:44.491Z,7.00
2023-04-22T22:45:12.929Z,7.00
2023-04-22T22:47:41.108Z,6.90
2023-04-22T22:50:11.388Z,6.90
2023-04-22T22:52:39.929Z,6.80
2023-04-22T22:55:08.633Z,6.80
2023-04-22T22:57:36.608Z,6.70
2023-04-22T23:00:06.868Z,6.60
2023-04-22T23:02:35.040Z,6.40
2023-04-22T23:05:04.505Z,6.40
2023-04-22T23:07:33.850Z,6.30
2023-04-22T23:10:01.944Z,6.30
2023-04-22T23:12:29.986Z,6.40
2023-04-22T23:14:57.912Z,6.40
2023-04-22T23:17:26.169Z,6.10
2023-04-22T23:19:56.242Z,6.00
2023-04-22T23:22:25.401Z,6.00
2023-04-22T23:24:57.066Z,5.90
2023-04-22T23:27:26.841Z,6.00
2023-04-22T23:29:57.341Z,6.10
2023-04-22T23:32:28.290Z,6.20
2023-04-22T23:34:59.013Z,6.20
2023-04-22T23:37:30.089Z,6.20
2023-04-22T23:40:02.161Z,6.20
2023-04-22T23:42:31.322Z,6.20
2023-04-22T23:44:59.659Z,6.00
2023-04-22T23:47:29.698Z,5.80
2023-04-22T23:49:59.281Z,5.80
2023-04-22T23:52:28.463Z,5.80
2023-04-22T23:55:00.739Z,5.70
2023-04-22T23:57:30.088Z,5.70
2023-04-22T23:59:59.624Z,5.60
